Terminal Aerodrome Forecast
Issued by NWS Charleston, WV

Current Version | Previous Version | Graphics & Text | Print | Product List | Glossary On
Versions: 1 2 3 4 5 6 7 8 9 10 11 12 13 14 15 16 17 18 19 20 21 22 23 24 25
992
FTUS41 KRLX 171501 AAA
TAFCRW
TAF AMD
KCRW 171501Z 1715/1812 VRB03KT P6SM SCT035 SCT100
     FM171800 22006KT 3SM TSRA BKN035CB
     FM172000 22005KT P6SM SCT040
     FM180600 VRB03KT 5SM SHRA VCTS BKN040CB=

USA.gov is the U.S. government's official web portal to all federal, state and local government web resources and services.